createdAt,value
2022-12-06T00:01:28.980Z,9.77
2022-12-06T00:03:58.959Z,9.78
2022-12-06T00:06:30.089Z,9.82
2022-12-06T00:08:59.291Z,9.83
2022-12-06T00:11:29.521Z,9.79
2022-12-06T00:14:00.231Z,9.79
2022-12-06T00:16:28.894Z,9.79
2022-12-06T00:18:57.627Z,9.80
2022-12-06T00:21:28.322Z,9.83
2022-12-06T00:23:58.356Z,9.84
2022-12-06T00:26:27.081Z,9.86
2022-12-06T00:28:58.901Z,9.89
2022-12-06T00:31:28.936Z,9.90
2022-12-06T00:33:57.088Z,9.90
2022-12-06T00:36:27.465Z,9.93
2022-12-06T00:38:54.744Z,9.95
2022-12-06T00:41:24.563Z,9.96
2022-12-06T00:43:52.912Z,9.96
2022-12-06T00:46:24.562Z,9.98
2022-12-06T00:48:53.514Z,10.00
2022-12-06T00:51:23.527Z,10.00
2022-12-06T00:53:51.573Z,10.02
2022-12-06T00:56:19.754Z,10.04
2022-12-06T00:58:47.412Z,10.06
2022-12-06T01:01:17.441Z,10.09
2022-12-06T01:03:46.889Z,10.12
2022-12-06T01:06:15.929Z,10.15
2022-12-06T01:08:43.725Z,10.19
2022-12-06T01:11:13.895Z,10.21
2022-12-06T01:13:41.388Z,10.24
2022-12-06T01:16:12.389Z,10.26
2022-12-06T01:18:41.229Z,10.30
2022-12-06T01:21:13.455Z,10.32
2022-12-06T01:23:40.450Z,10.36
2022-12-06T01:26:14.295Z,10.40
2022-12-06T01:28:41.228Z,10.42
2022-12-06T01:31:09.214Z,10.43
2022-12-06T01:33:36.206Z,10.46
2022-12-06T01:36:03.611Z,10.48
2022-12-06T01:38:32.229Z,10.51
2022-12-06T01:40:59.550Z,10.51
2022-12-06T01:43:36.070Z,10.50
2022-12-06T01:46:12.981Z,10.51
2022-12-06T01:48:41.789Z,10.50
2022-12-06T01:51:13.298Z,10.53
2022-12-06T01:53:45.386Z,10.52
2022-12-06T01:56:13.517Z,10.53
2022-12-06T01:58:45.025Z,10.55
2022-12-06T02:01:12.342Z,10.54
2022-12-06T02:03:40.068Z,10.55
2022-12-06T02:06:09.362Z,10.55
2022-12-06T02:08:38.198Z,10.54
2022-12-06T02:11:08.481Z,10.53
2022-12-06T02:13:37.202Z,10.54
2022-12-06T02:16:26.342Z,10.53
2022-12-06T02:19:00.777Z,10.54
2022-12-06T02:21:41.116Z,10.53
2022-12-06T02:25:04.580Z,10.49
2022-12-06T02:28:25.446Z,10.47
2022-12-06T02:31:00.006Z,10.50
2022-12-06T02:33:39.903Z,10.50
2022-12-06T02:36:17.158Z,10.52
2022-12-06T02:38:48.900Z,10.51
2022-12-06T02:41:24.160Z,10.52
2022-12-06T02:44:00.622Z,10.53
2022-12-06T02:46:34.822Z,10.53
2022-12-06T02:49:07.004Z,10.53
2022-12-06T02:51:37.406Z,10.53
2022-12-06T02:54:09.997Z,10.53
2022-12-06T02:56:37.056Z,10.53
2022-12-06T02:59:05.544Z,10.54
2022-12-06T03:01:40.932Z,10.55
2022-12-06T03:04:46.528Z,10.55
2022-12-06T03:07:37.620Z,10.53
2022-12-06T03:10:29.452Z,10.54
2022-12-06T03:13:21.205Z,10.55
2022-12-06T03:16:00.014Z,10.56
2022-12-06T03:18:37.216Z,10.56
2022-12-06T03:21:10.543Z,10.56
2022-12-06T03:23:41.826Z,10.57
2022-12-06T03:26:16.818Z,10.58
2022-12-06T03:28:48.379Z,10.60
2022-12-06T03:31:16.357Z,10.60
2022-12-06T03:33:52.995Z,10.60
2022-12-06T03:36:21.867Z,10.62
2022-12-06T03:38:55.134Z,10.62
2022-12-06T03:41:30.682Z,10.61
2022-12-06T03:43:59.803Z,10.62
2022-12-06T03:46:33.854Z,10.62
2022-12-06T03:49:09.841Z,10.63
2022-12-06T03:51:39.551Z,10.64
2022-12-06T03:54:08.401Z,10.63
2022-12-06T03:56:37.906Z,10.63
2022-12-06T03:59:05.261Z,10.63
2022-12-06T04:01:32.383Z,10.62
2022-12-06T04:03:59.693Z,10.64
2022-12-06T04:06:28.314Z,10.64
2022-12-06T04:09:15.496Z,10.65
2022-12-06T04:11:42.685Z,10.64
2022-12-06T04:14:09.671Z,10.66
2022-12-06T04:16:55.406Z,10.67
2022-12-06T04:19:22.398Z,10.66
2022-12-06T04:22:09.181Z,10.67
2022-12-06T04:24:36.113Z,10.66
2022-12-06T04:27:21.562Z,10.66
2022-12-06T04:30:07.079Z,10.63
2022-12-06T04:32:52.569Z,10.62
2022-12-06T04:35:38.064Z,10.61
2022-12-06T04:38:25.189Z,10.61
2022-12-06T04:40:52.133Z,10.61
2022-12-06T04:43:42.410Z,10.63
2022-12-06T04:46:09.862Z,10.61
2022-12-06T04:48:37.309Z,10.61
2022-12-06T04:51:04.902Z,10.60
2022-12-06T04:53:33.377Z,10.58
2022-12-06T04:56:01.608Z,10.58
2022-12-06T04:58:28.573Z,10.58
2022-12-06T05:00:55.875Z,10.58
2022-12-06T05:03:23.045Z,10.60
2022-12-06T05:05:50.395Z,10.62
2022-12-06T05:08:17.435Z,10.62
2022-12-06T05:10:49.591Z,10.64
2022-12-06T05:13:17.978Z,10.62
2022-12-06T05:15:51.221Z,10.61
2022-12-06T05:18:18.482Z,10.62
2022-12-06T05:20:46.058Z,10.63
2022-12-06T05:23:14.004Z,10.61
2022-12-06T05:25:41.518Z,10.61
2022-12-06T05:28:10.194Z,10.59
2022-12-06T05:30:37.251Z,10.58
2022-12-06T05:33:04.187Z,10.58
2022-12-06T05:35:31.189Z,10.55
2022-12-06T05:37:58.110Z,10.55
2022-12-06T05:40:25.048Z,10.53
2022-12-06T05:42:52.053Z,10.52
2022-12-06T05:45:20.405Z,10.51
2022-12-06T05:47:47.408Z,10.50
2022-12-06T05:50:14.382Z,10.50
2022-12-06T05:52:41.771Z,10.51
2022-12-06T05:55:09.235Z,10.52
2022-12-06T05:57:36.202Z,10.53
2022-12-06T06:00:06.102Z,10.51
2022-12-06T06:02:34.467Z,10.50
2022-12-06T06:05:01.503Z,10.49
2022-12-06T06:07:29.443Z,10.48
2022-12-06T06:09:56.391Z,10.46
2022-12-06T06:12:23.423Z,10.46
2022-12-06T06:14:50.489Z,10.48
2022-12-06T06:17:17.704Z,10.50
2022-12-06T06:19:51.162Z,10.50
2022-12-06T06:22:19.878Z,10.51
2022-12-06T06:24:47.135Z,10.52
2022-12-06T06:27:14.562Z,10.51
2022-12-06T06:29:45.319Z,10.51
2022-12-06T06:32:13.576Z,10.49
2022-12-06T06:34:40.630Z,10.51
2022-12-06T06:37:08.925Z,10.53
2022-12-06T06:39:35.898Z,10.53
2022-12-06T06:42:02.987Z,10.54
2022-12-06T06:44:29.900Z,10.54
2022-12-06T06:46:56.859Z,10.54
2022-12-06T06:49:24.595Z,10.53
2022-12-06T06:51:51.557Z,10.55
2022-12-06T06:54:20.080Z,10.54
2022-12-06T06:56:47.021Z,10.55
2022-12-06T06:59:13.974Z,10.55
2022-12-06T07:01:41.132Z,10.56
2022-12-06T07:04:08.168Z,10.56
2022-12-06T07:06:35.230Z,10.56
2022-12-06T07:09:02.275Z,10.55
2022-12-06T07:11:30.604Z,10.55
2022-12-06T07:13:57.602Z,10.56
2022-12-06T07:16:24.643Z,10.58
2022-12-06T07:18:51.763Z,10.61
2022-12-06T07:21:18.859Z,10.61
2022-12-06T07:23:45.865Z,10.59
2022-12-06T07:26:15.303Z,10.61
2022-12-06T07:28:46.823Z,10.61
2022-12-06T07:31:16.681Z,10.63
2022-12-06T07:33:44.754Z,10.66
2022-12-06T07:36:14.216Z,10.67
2022-12-06T07:38:43.107Z,10.68
2022-12-06T07:41:32.376Z,10.68
2022-12-06T07:44:21.335Z,10.65
2022-12-06T07:46:48.950Z,10.66
2022-12-06T07:49:17.399Z,10.67
2022-12-06T07:51:45.701Z,10.71
2022-12-06T07:54:13.701Z,10.73
2022-12-06T07:56:41.123Z,10.73
2022-12-06T07:59:09.963Z,10.71
2022-12-06T08:01:37.156Z,10.70
2022-12-06T08:04:06.431Z,10.69
2022-12-06T08:06:34.693Z,10.69
2022-12-06T08:09:01.965Z,10.72
2022-12-06T08:11:29.165Z,10.74
2022-12-06T08:13:56.949Z,10.79
2022-12-06T08:16:25.338Z,10.80
2022-12-06T08:18:52.652Z,10.78
2022-12-06T08:21:19.766Z,10.78
2022-12-06T08:23:46.993Z,10.78
2022-12-06T08:26:18.739Z,10.73
2022-12-06T08:28:46.180Z,10.72
2022-12-06T08:31:16.345Z,10.69
2022-12-06T08:33:47.791Z,10.68
2022-12-06T08:36:20.048Z,10.68
2022-12-06T08:38:48.038Z,10.68
2022-12-06T08:41:34.573Z,10.70
2022-12-06T08:44:03.606Z,10.73
2022-12-06T08:46:35.302Z,10.77
2022-12-06T08:49:04.097Z,10.80
2022-12-06T08:51:34.339Z,10.83
2022-12-06T08:54:02.140Z,10.87
2022-12-06T08:56:29.235Z,10.91
2022-12-06T08:58:56.764Z,10.94
2022-12-06T09:01:30.168Z,10.94
2022-12-06T09:04:00.570Z,10.93
2022-12-06T09:06:29.842Z,10.91
2022-12-06T09:08:58.350Z,10.91
2022-12-06T09:11:26.448Z,10.97
2022-12-06T09:13:53.492Z,11.02
2022-12-06T09:16:23.533Z,11.05
2022-12-06T09:18:51.661Z,11.05
2022-12-06T09:21:21.932Z,11.04
2022-12-06T09:23:51.264Z,11.02
2022-12-06T09:26:18.364Z,11.01
2022-12-06T09:28:51.453Z,11.01
2022-12-06T09:31:19.299Z,11.09
2022-12-06T09:33:46.745Z,11.16
2022-12-06T09:36:19.543Z,11.20
2022-12-06T09:38:55.247Z,11.24
2022-12-06T09:42:15.586Z,11.20
2022-12-06T09:45:24.713Z,11.15
2022-12-06T09:48:34.634Z,11.13
2022-12-06T09:51:17.966Z,11.18
2022-12-06T09:54:11.262Z,11.18
2022-12-06T09:56:47.386Z,11.20
2022-12-06T09:59:27.713Z,11.21
2022-12-06T10:02:23.476Z,11.17
2022-12-06T10:05:20.250Z,11.16
2022-12-06T10:08:04.413Z,11.18
2022-12-06T10:10:51.830Z,11.21
2022-12-06T10:13:34.244Z,11.26
2022-12-06T10:16:15.775Z,11.28
2022-12-06T10:19:08.274Z,11.30
2022-12-06T10:21:49.569Z,11.33
2022-12-06T10:24:42.336Z,11.36
2022-12-06T10:27:14.688Z,11.37
2022-12-06T10:29:55.220Z,11.42
2022-12-06T10:32:53.138Z,11.45
2022-12-06T10:35:39.789Z,11.45
2022-12-06T10:38:22.915Z,11.48
2022-12-06T10:41:03.137Z,11.51
2022-12-06T10:43:46.585Z,11.51
2022-12-06T10:46:42.451Z,11.54
2022-12-06T10:49:22.536Z,11.51
2022-12-06T10:52:00.581Z,11.48
2022-12-06T10:54:36.154Z,11.48
2022-12-06T10:57:15.370Z,11.47
2022-12-06T10:59:54.480Z,11.46
2022-12-06T11:02:31.585Z,11.43
2022-12-06T11:05:09.041Z,11.39
2022-12-06T11:07:43.189Z,11.37
2022-12-06T11:10:20.354Z,11.36
2022-12-06T11:12:54.738Z,11.37
2022-12-06T11:15:29.294Z,11.37
2022-12-06T11:18:07.608Z,11.38
2022-12-06T11:20:44.454Z,11.37
2022-12-06T11:23:21.545Z,11.38
2022-12-06T11:26:04.965Z,11.34
2022-12-06T11:28:38.272Z,11.31
2022-12-06T11:31:24.406Z,11.27
2022-12-06T11:33:53.755Z,11.27
2022-12-06T11:36:22.075Z,11.26
2022-12-06T11:38:49.107Z,11.26
2022-12-06T11:41:25.008Z,11.26
2022-12-06T11:43:54.115Z,11.27
2022-12-06T11:46:24.935Z,11.24
2022-12-06T11:48:53.725Z,11.24
2022-12-06T11:51:23.582Z,11.23
2022-12-06T11:54:06.459Z,11.19
2022-12-06T11:56:38.784Z,11.18
2022-12-06T11:59:28.368Z,11.16
2022-12-06T12:01:58.748Z,11.20
2022-12-06T12:04:34.056Z,11.22
2022-12-06T12:07:11.351Z,11.24
2022-12-06T12:09:50.900Z,11.26
2022-12-06T12:12:22.060Z,11.28
2022-12-06T12:14:56.630Z,11.27
2022-12-06T12:17:32.156Z,11.28
2022-12-06T12:20:06.084Z,11.29
2022-12-06T12:22:40.786Z,11.30
2022-12-06T12:25:26.431Z,11.30
2022-12-06T12:27:58.580Z,11.34
2022-12-06T12:30:33.141Z,11.36
2022-12-06T12:33:22.798Z,11.39
2022-12-06T12:35:54.985Z,11.46
2022-12-06T12:38:37.874Z,11.47
2022-12-06T12:41:23.492Z,11.44
2022-12-06T12:44:35.384Z,11.44
2022-12-06T12:46:55.032Z,11.45
2022-12-06T12:49:30.914Z,11.46
2022-12-06T12:52:00.086Z,11.44
2022-12-06T12:54:32.241Z,11.45
2022-12-06T12:57:05.132Z,11.42
2022-12-06T12:59:40.634Z,11.37
2022-12-06T13:02:21.494Z,11.34
2022-12-06T13:05:11.133Z,11.33
2022-12-06T13:07:43.564Z,11.31
2022-12-06T13:10:23.385Z,11.29
2022-12-06T13:12:55.986Z,11.29
2022-12-06T13:15:33.330Z,11.27
2022-12-06T13:18:11.654Z,11.23
2022-12-06T13:20:41.284Z,11.24
2022-12-06T13:23:14.083Z,11.25
2022-12-06T13:25:46.904Z,11.26
2022-12-06T13:28:21.354Z,11.29
2022-12-06T13:30:59.338Z,11.33
2022-12-06T13:33:31.995Z,11.43
2022-12-06T13:36:07.407Z,11.49
2022-12-06T13:38:37.476Z,11.55
2022-12-06T13:41:06.489Z,11.57
2022-12-06T13:43:54.859Z,11.59
2022-12-06T13:46:37.405Z,11.59
2022-12-06T13:49:24.796Z,11.55
2022-12-06T13:51:53.403Z,11.50
2022-12-06T13:54:32.851Z,11.39
2022-12-06T13:57:24.012Z,11.33
2022-12-06T13:59:51.442Z,11.26
2022-12-06T14:02:49.168Z,11.17
2022-12-06T14:06:14.037Z,11.08
2022-12-06T14:08:46.872Z,11.06
2022-12-06T14:11:21.386Z,11.06
2022-12-06T14:14:03.346Z,11.06
2022-12-06T14:16:38.178Z,11.08
2022-12-06T14:19:17.896Z,11.12
2022-12-06T14:21:53.866Z,11.15
2022-12-06T14:24:33.203Z,11.15
2022-12-06T14:27:12.664Z,11.13
2022-12-06T14:29:40.898Z,11.15
2022-12-06T14:32:08.522Z,11.19
2022-12-06T14:34:37.428Z,11.22
2022-12-06T14:37:19.650Z,11.25
2022-12-06T14:39:54.965Z,11.24
2022-12-06T14:42:41.215Z,11.24
2022-12-06T14:45:15.817Z,11.18
2022-12-06T14:47:45.131Z,11.21
2022-12-06T14:50:28.261Z,11.19
2022-12-06T14:53:03.610Z,11.17
2022-12-06T14:55:34.860Z,11.09
2022-12-06T14:58:14.103Z,11.05
2022-12-06T15:00:53.789Z,11.00
2022-12-06T15:03:30.593Z,10.98
2022-12-06T15:06:15.768Z,10.96
2022-12-06T15:08:44.541Z,10.97
2022-12-06T15:11:52.615Z,10.92
2022-12-06T15:14:25.524Z,10.91
2022-12-06T15:17:00.436Z,10.89
2022-12-06T15:19:30.486Z,10.91
2022-12-06T15:21:59.622Z,10.94
2022-12-06T15:24:29.115Z,10.95
2022-12-06T15:26:57.794Z,10.98
2022-12-06T15:29:24.982Z,11.01
2022-12-06T15:31:54.818Z,11.01
2022-12-06T15:34:28.408Z,11.00
2022-12-06T15:37:15.549Z,10.97
2022-12-06T15:39:44.124Z,10.93
2022-12-06T15:42:20.074Z,10.87
2022-12-06T15:44:49.943Z,10.81
2022-12-06T15:47:20.060Z,10.76
2022-12-06T15:49:48.806Z,10.70
2022-12-06T15:52:18.253Z,10.66
2022-12-06T15:54:45.553Z,10.63
2022-12-06T15:57:14.682Z,10.60
2022-12-06T15:59:41.720Z,10.55
2022-12-06T16:02:15.558Z,10.52
2022-12-06T16:04:43.624Z,10.52
2022-12-06T16:07:10.823Z,10.50
2022-12-06T16:09:38.162Z,10.49
2022-12-06T16:12:05.820Z,10.46
2022-12-06T16:14:34.152Z,10.46
2022-12-06T16:17:01.080Z,10.44
2022-12-06T16:19:47.974Z,10.44
2022-12-06T16:22:15.095Z,10.44
2022-12-06T16:24:42.071Z,10.81
2022-12-06T16:27:09.326Z,10.66
2022-12-06T16:29:37.838Z,10.63
2022-12-06T16:32:05.185Z,10.59
2022-12-06T16:34:32.161Z,10.56
2022-12-06T16:37:02.162Z,10.50
2022-12-06T16:39:31.892Z,10.44
2022-12-06T16:41:59.676Z,10.40
2022-12-06T16:44:27.002Z,10.34
2022-12-06T16:46:55.747Z,10.29
2022-12-06T16:52:12.517Z,10.26
2022-12-06T16:54:42.615Z,10.25
2022-12-06T16:57:11.255Z,10.23
2022-12-06T16:59:38.270Z,10.24
2022-12-06T17:02:26.532Z,10.20
2022-12-06T17:04:54.849Z,10.22
2022-12-06T17:07:22.113Z,10.24
2022-12-06T17:09:49.221Z,10.29
2022-12-06T17:12:16.628Z,10.33
2022-12-06T17:14:44.168Z,10.36
2022-12-06T17:17:15.198Z,10.35
2022-12-06T17:19:43.262Z,10.34
2022-12-06T17:22:11.824Z,10.34
2022-12-06T17:24:39.318Z,10.35
2022-12-06T17:27:08.710Z,10.33
2022-12-06T17:29:36.452Z,10.32
2022-12-06T17:32:03.645Z,10.29
2022-12-06T17:34:32.044Z,10.27
2022-12-06T17:36:59.890Z,10.21
2022-12-06T17:39:26.933Z,10.20
2022-12-06T17:42:12.634Z,10.22
2022-12-06T17:44:39.919Z,10.19
2022-12-06T17:47:07.126Z,10.19
2022-12-06T17:49:36.126Z,10.19
2022-12-06T17:52:03.889Z,10.16
2022-12-06T17:54:30.843Z,10.13
2022-12-06T17:56:57.958Z,10.14
2022-12-06T17:59:27.803Z,10.13
2022-12-06T18:02:14.615Z,10.10
2022-12-06T18:04:43.847Z,10.04
2022-12-06T18:07:11.811Z,9.99
2022-12-06T18:09:39.299Z,9.95
2022-12-06T18:12:08.995Z,9.94
2022-12-06T18:14:35.963Z,9.89
2022-12-06T18:17:03.417Z,9.87
2022-12-06T18:19:31.808Z,9.86
2022-12-06T18:22:01.528Z,9.85
2022-12-06T18:24:35.289Z,9.83
2022-12-06T18:27:04.011Z,9.82
2022-12-06T18:29:31.071Z,9.78
2022-12-06T18:31:58.242Z,9.72
2022-12-06T18:34:25.479Z,9.69
2022-12-06T18:36:52.449Z,9.66
2022-12-06T18:39:24.507Z,9.62
2022-12-06T18:41:52.674Z,9.64
2022-12-06T18:44:19.919Z,9.70
2022-12-06T18:46:47.001Z,9.73
2022-12-06T18:49:14.815Z,9.76
2022-12-06T18:51:42.291Z,9.76
2022-12-06T18:54:13.445Z,9.73
2022-12-06T18:56:42.647Z,9.68
2022-12-06T18:59:11.484Z,9.64
2022-12-06T19:01:40.557Z,9.62
2022-12-06T19:04:14.151Z,9.61
2022-12-06T19:06:43.037Z,9.60
2022-12-06T19:09:14.661Z,9.60
2022-12-06T19:11:46.069Z,9.63
2022-12-06T19:14:14.763Z,9.69
2022-12-06T19:16:44.814Z,9.72
2022-12-06T19:19:18.570Z,9.72
2022-12-06T19:21:47.214Z,9.76
2022-12-06T19:24:17.766Z,9.79
2022-12-06T19:26:46.381Z,9.85
2022-12-06T19:29:16.242Z,9.87
2022-12-06T19:31:45.044Z,9.92
2022-12-06T19:34:17.997Z,9.92
2022-12-06T19:36:45.733Z,9.92
2022-12-06T19:39:13.954Z,9.88
2022-12-06T19:42:00.742Z,9.89
2022-12-06T19:44:30.513Z,9.85
2022-12-06T19:46:58.315Z,9.85
2022-12-06T19:49:27.011Z,9.83
2022-12-06T19:51:54.222Z,9.85
2022-12-06T19:54:24.899Z,9.88
2022-12-06T19:56:54.772Z,9.90
2022-12-06T19:59:23.616Z,9.89
2022-12-06T20:01:54.070Z,9.92
2022-12-06T20:04:24.870Z,9.91
2022-12-06T20:06:53.336Z,9.90
2022-12-06T20:09:40.259Z,9.85
2022-12-06T20:12:07.824Z,9.82
2022-12-06T20:14:38.733Z,9.83
2022-12-06T20:17:11.971Z,9.83
2022-12-06T20:19:40.277Z,9.86
2022-12-06T20:22:07.249Z,9.87
2022-12-06T20:24:34.238Z,9.89
2022-12-06T20:27:01.795Z,9.87
2022-12-06T20:29:29.902Z,9.87
2022-12-06T20:31:59.353Z,9.85
2022-12-06T20:34:34.065Z,9.84
2022-12-06T20:37:03.806Z,9.84
2022-12-06T20:39:33.008Z,9.80
2022-12-06T20:42:02.817Z,9.78
2022-12-06T20:44:30.731Z,9.75
2022-12-06T20:46:57.900Z,9.73
2022-12-06T20:49:24.989Z,9.74
2022-12-06T20:51:53.912Z,9.75
2022-12-06T20:54:23.268Z,9.77
2022-12-06T20:56:53.394Z,9.78
2022-12-06T20:59:20.978Z,9.77
2022-12-06T21:01:48.725Z,9.77
2022-12-06T21:04:16.682Z,9.77
2022-12-06T21:06:43.864Z,9.76
2022-12-06T21:09:12.296Z,9.76
2022-12-06T21:11:39.873Z,9.77
2022-12-06T21:14:06.887Z,9.77
2022-12-06T21:16:35.527Z,9.77
2022-12-06T21:19:05.184Z,9.79
2022-12-06T21:21:35.143Z,9.83
2022-12-06T21:24:05.122Z,9.84
2022-12-06T21:26:35.030Z,9.85
2022-12-06T21:29:02.653Z,9.86
2022-12-06T21:31:32.711Z,9.89
2022-12-06T21:33:59.838Z,9.92
2022-12-06T21:36:27.355Z,9.94
2022-12-06T21:38:55.131Z,9.96
2022-12-06T21:41:22.496Z,9.99
2022-12-06T21:43:50.843Z,9.99
2022-12-06T21:46:21.452Z,9.97
2022-12-06T21:48:51.343Z,9.96
2022-12-06T21:51:19.704Z,9.97
2022-12-06T21:53:46.982Z,9.99
2022-12-06T21:56:19.174Z,10.00
2022-12-06T21:58:48.391Z,10.01
2022-12-06T22:01:20.239Z,10.02
2022-12-06T22:03:49.227Z,10.05
2022-12-06T22:06:16.656Z,10.09
2022-12-06T22:08:45.586Z,10.16
2022-12-06T22:11:16.092Z,10.20
2022-12-06T22:13:43.602Z,10.23
2022-12-06T22:16:12.287Z,10.24
2022-12-06T22:18:45.407Z,10.23
2022-12-06T22:21:16.690Z,10.22
2022-12-06T22:23:45.733Z,10.22
2022-12-06T22:26:16.342Z,10.23
2022-12-06T22:28:43.471Z,10.24
2022-12-06T22:31:13.119Z,10.22
2022-12-06T22:33:42.406Z,10.24
2022-12-06T22:36:10.434Z,10.25
2022-12-06T22:38:37.671Z,10.29
2022-12-06T22:41:06.052Z,10.32
2022-12-06T22:43:33.769Z,10.36
2022-12-06T22:46:05.219Z,10.38
2022-12-06T22:48:32.622Z,10.41
2022-12-06T22:51:13.624Z,10.41
2022-12-06T22:53:43.312Z,10.43
2022-12-06T22:56:11.252Z,10.42
2022-12-06T22:58:38.746Z,10.44
2022-12-06T23:01:15.995Z,10.47
2022-12-06T23:03:44.476Z,10.50
2022-12-06T23:06:13.823Z,10.52
2022-12-06T23:08:41.114Z,10.54
2022-12-06T23:11:11.676Z,10.57
2022-12-06T23:13:38.980Z,10.58
2022-12-06T23:16:10.562Z,10.60
2022-12-06T23:18:37.612Z,10.63
2022-12-06T23:21:08.953Z,10.63
2022-12-06T23:23:39.867Z,10.63
2022-12-06T23:26:09.274Z,10.65
2022-12-06T23:28:37.160Z,10.66
2022-12-06T23:31:06.650Z,10.66
2022-12-06T23:33:34.548Z,10.65
2022-12-06T23:36:07.869Z,10.64
2022-12-06T23:38:37.262Z,10.62
2022-12-06T23:41:07.183Z,10.62
2022-12-06T23:43:36.157Z,10.63
2022-12-06T23:46:07.792Z,10.62
2022-12-06T23:48:35.592Z,10.60
2022-12-06T23:51:05.715Z,10.55
2022-12-06T23:53:34.085Z,10.51
2022-12-06T23:56:08.403Z,10.48
2022-12-06T23:58:36.465Z,10.47
